0TE9 weather

Public forecast

Using degrees Fahrenheit for public forecast. Weather courtesy of forecast.io.

Closest aviation weather report (METAR) to Texas World Speedway Helistop Nr 2 Heliport

Closest report is Easterwood Field, 7.7 nm (14.3 km) WNW. Retrieved 2020/08/13 15:53 UTC (30 minutes ago):

KCLL 131553Z 23010KT 10SM SCT028 31/23 A3001 RMK AO2 SLP156 T03110228

Closest aviation forecast (TAF) to Texas World Speedway Helistop Nr 2 Heliport

Closest forecast is Easterwood Field, 7.7 nm (14.3 km) WNW. Retrieved 2020/08/13 12:22 UTC (4 hours ago):

TAF KCLL 131120Z 1312/1412 19006KT P6SM BKN015 FM131400 21008KT P6SM SCT015 SCT250 FM131800 18009KT P6SM FEW250 FM140600 VRB04KT P6SM SKC